sensor_id;sensor_type;location;lat;lon;timestamp;P1;durP1;ratioP1;P2;durP2;ratioP2
19358;SDS011;9815;52.334;20.890;2023-09-19T00:00:43;16.90;;;10.57;;
19358;SDS011;9815;52.334;20.890;2023-09-19T00:03:14;16.60;;;11.03;;
19358;SDS011;9815;52.334;20.890;2023-09-19T00:05:43;16.33;;;10.73;;
19358;SDS011;9815;52.334;20.890;2023-09-19T00:08:13;21.17;;;10.77;;
19358;SDS011;9815;52.334;20.890;2023-09-19T00:10:41;18.03;;;10.57;;
19358;SDS011;9815;52.334;20.890;2023-09-19T00:13:12;18.53;;;10.67;;
19358;SDS011;9815;52.334;20.890;2023-09-19T00:15:42;16.83;;;10.87;;
19358;SDS011;9815;52.334;20.890;2023-09-19T00:18:16;15.00;;;11.03;;
19358;SDS011;9815;52.334;20.890;2023-09-19T00:20:45;15.17;;;10.37;;
19358;SDS011;9815;52.334;20.890;2023-09-19T00:23:16;17.23;;;10.60;;
19358;SDS011;9815;52.334;20.890;2023-09-19T00:25:46;15.07;;;10.27;;
19358;SDS011;9815;52.334;20.890;2023-09-19T00:28:16;16.50;;;11.23;;
19358;SDS011;9815;52.334;20.890;2023-09-19T00:30:46;16.30;;;11.70;;
19358;SDS011;9815;52.334;20.890;2023-09-19T00:33:17;15.93;;;11.10;;
19358;SDS011;9815;52.334;20.890;2023-09-19T00:35:47;15.97;;;10.80;;
19358;SDS011;9815;52.334;20.890;2023-09-19T00:38:15;16.07;;;10.57;;
19358;SDS011;9815;52.334;20.890;2023-09-19T00:40:46;19.50;;;11.70;;
19358;SDS011;9815;52.334;20.890;2023-09-19T00:43:16;17.40;;;11.07;;
19358;SDS011;9815;52.334;20.890;2023-09-19T00:45:46;17.33;;;10.93;;
19358;SDS011;9815;52.334;20.890;2023-09-19T00:48:18;17.43;;;11.00;;
19358;SDS011;9815;52.334;20.890;2023-09-19T00:50:47;17.73;;;11.43;;
19358;SDS011;9815;52.334;20.890;2023-09-19T00:53:18;16.07;;;11.37;;
19358;SDS011;9815;52.334;20.890;2023-09-19T00:55:49;17.83;;;11.47;;
19358;SDS011;9815;52.334;20.890;2023-09-19T00:58:20;19.70;;;11.13;;
19358;SDS011;9815;52.334;20.890;2023-09-19T01:00:48;16.73;;;10.93;;
19358;SDS011;9815;52.334;20.890;2023-09-19T01:03:17;21.47;;;12.20;;
19358;SDS011;9815;52.334;20.890;2023-09-19T01:05:46;20.60;;;11.53;;
19358;SDS011;9815;52.334;20.890;2023-09-19T01:08:15;15.67;;;11.27;;
19358;SDS011;9815;52.334;20.890;2023-09-19T01:10:46;19.13;;;11.33;;
19358;SDS011;9815;52.334;20.890;2023-09-19T01:13:23;18.90;;;11.23;;
19358;SDS011;9815;52.334;20.890;2023-09-19T01:15:59;18.67;;;11.67;;
19358;SDS011;9815;52.334;20.890;2023-09-19T01:18:35;21.03;;;11.77;;
19358;SDS011;9815;52.334;20.890;2023-09-19T01:21:15;16.47;;;10.80;;
19358;SDS011;9815;52.334;20.890;2023-09-19T01:24:01;18.13;;;11.60;;
19358;SDS011;9815;52.334;20.890;2023-09-19T01:26:50;18.80;;;11.70;;
19358;SDS011;9815;52.334;20.890;2023-09-19T01:29:33;22.20;;;12.53;;
19358;SDS011;9815;52.334;20.890;2023-09-19T01:32:08;18.47;;;11.47;;
19358;SDS011;9815;52.334;20.890;2023-09-19T01:34:43;23.43;;;11.73;;
19358;SDS011;9815;52.334;20.890;2023-09-19T01:37:14;18.67;;;11.20;;
19358;SDS011;9815;52.334;20.890;2023-09-19T01:39:46;17.93;;;11.87;;
19358;SDS011;9815;52.334;20.890;2023-09-19T01:42:20;17.97;;;12.20;;
19358;SDS011;9815;52.334;20.890;2023-09-19T01:44:59;19.43;;;12.20;;
19358;SDS011;9815;52.334;20.890;2023-09-19T01:47:36;16.03;;;12.17;;
19358;SDS011;9815;52.334;20.890;2023-09-19T01:50:12;16.40;;;11.43;;
19358;SDS011;9815;52.334;20.890;2023-09-19T01:52:46;19.83;;;11.90;;
19358;SDS011;9815;52.334;20.890;2023-09-19T01:55:16;18.63;;;12.03;;
19358;SDS011;9815;52.334;20.890;2023-09-19T01:57:48;18.00;;;11.97;;
19358;SDS011;9815;52.334;20.890;2023-09-19T02:00:21;19.40;;;12.20;;
19358;SDS011;9815;52.334;20.890;2023-09-19T02:02:53;19.23;;;11.47;;
19358;SDS011;9815;52.334;20.890;2023-09-19T02:05:25;17.37;;;11.67;;
19358;SDS011;9815;52.334;20.890;2023-09-19T02:07:54;19.67;;;12.10;;
19358;SDS011;9815;52.334;20.890;2023-09-19T02:10:25;15.63;;;11.47;;
19358;SDS011;9815;52.334;20.890;2023-09-19T02:12:53;19.00;;;11.87;;
19358;SDS011;9815;52.334;20.890;2023-09-19T02:15:23;17.67;;;11.83;;
19358;SDS011;9815;52.334;20.890;2023-09-19T02:17:51;17.93;;;11.50;;
19358;SDS011;9815;52.334;20.890;2023-09-19T02:20:21;17.57;;;11.90;;
19358;SDS011;9815;52.334;20.890;2023-09-19T02:22:49;18.53;;;11.23;;
19358;SDS011;9815;52.334;20.890;2023-09-19T02:25:18;19.20;;;11.93;;
19358;SDS011;9815;52.334;20.890;2023-09-19T02:27:47;18.73;;;11.80;;
19358;SDS011;9815;52.334;20.890;2023-09-19T02:30:15;22.27;;;11.80;;
19358;SDS011;9815;52.334;20.890;2023-09-19T02:32:44;19.77;;;11.47;;
19358;SDS011;9815;52.334;20.890;2023-09-19T02:35:12;16.93;;;12.17;;
19358;SDS011;9815;52.334;20.890;2023-09-19T02:37:42;19.17;;;11.80;;
19358;SDS011;9815;52.334;20.890;2023-09-19T02:40:11;16.63;;;11.23;;
19358;SDS011;9815;52.334;20.890;2023-09-19T02:42:46;17.97;;;12.47;;
19358;SDS011;9815;52.334;20.890;2023-09-19T02:45:15;18.43;;;12.27;;
19358;SDS011;9815;52.334;20.890;2023-09-19T02:47:45;17.77;;;10.93;;
19358;SDS011;9815;52.334;20.890;2023-09-19T02:50:15;17.57;;;11.73;;
19358;SDS011;9815;52.334;20.890;2023-09-19T02:52:45;19.77;;;12.17;;
19358;SDS011;9815;52.334;20.890;2023-09-19T02:55:16;17.17;;;11.30;;
19358;SDS011;9815;52.334;20.890;2023-09-19T02:57:46;22.23;;;12.03;;
19358;SDS011;9815;52.334;20.890;2023-09-19T03:00:16;18.50;;;11.97;;
19358;SDS011;9815;52.334;20.890;2023-09-19T03:02:48;17.33;;;11.33;;
19358;SDS011;9815;52.334;20.890;2023-09-19T03:05:18;17.83;;;12.47;;
19358;SDS011;9815;52.334;20.890;2023-09-19T03:07:49;19.13;;;12.63;;
19358;SDS011;9815;52.334;20.890;2023-09-19T03:10:19;21.03;;;11.90;;
19358;SDS011;9815;52.334;20.890;2023-09-19T03:12:48;20.27;;;12.60;;
19358;SDS011;9815;52.334;20.890;2023-09-19T03:15:18;23.00;;;12.30;;
19358;SDS011;9815;52.334;20.890;2023-09-19T03:17:49;18.67;;;12.23;;
19358;SDS011;9815;52.334;20.890;2023-09-19T03:20:20;20.40;;;12.40;;
19358;SDS011;9815;52.334;20.890;2023-09-19T03:22:50;18.33;;;11.90;;
19358;SDS011;9815;52.334;20.890;2023-09-19T03:25:21;19.77;;;12.27;;
19358;SDS011;9815;52.334;20.890;2023-09-19T03:27:51;19.03;;;12.13;;
19358;SDS011;9815;52.334;20.890;2023-09-19T03:30:22;18.03;;;11.60;;
19358;SDS011;9815;52.334;20.890;2023-09-19T03:32:50;20.33;;;12.30;;
19358;SDS011;9815;52.334;20.890;2023-09-19T03:35:19;19.20;;;12.50;;
19358;SDS011;9815;52.334;20.890;2023-09-19T03:37:48;19.40;;;12.70;;
19358;SDS011;9815;52.334;20.890;2023-09-19T03:40:20;18.33;;;12.70;;
19358;SDS011;9815;52.334;20.890;2023-09-19T03:42:50;15.73;;;11.83;;
19358;SDS011;9815;52.334;20.890;2023-09-19T03:45:18;18.77;;;12.57;;
19358;SDS011;9815;52.334;20.890;2023-09-19T03:47:50;19.67;;;12.50;;
19358;SDS011;9815;52.334;20.890;2023-09-19T03:50:20;19.63;;;12.73;;
19358;SDS011;9815;52.334;20.890;2023-09-19T03:52:49;19.20;;;12.50;;
19358;SDS011;9815;52.334;20.890;2023-09-19T03:55:18;19.90;;;12.90;;
19358;SDS011;9815;52.334;20.890;2023-09-19T03:57:49;24.73;;;12.70;;
19358;SDS011;9815;52.334;20.890;2023-09-19T04:00:17;21.53;;;12.37;;
19358;SDS011;9815;52.334;20.890;2023-09-19T04:02:48;23.80;;;12.60;;
19358;SDS011;9815;52.334;20.890;2023-09-19T04:05:16;19.07;;;12.50;;
19358;SDS011;9815;52.334;20.890;2023-09-19T04:07:45;18.83;;;12.50;;
19358;SDS011;9815;52.334;20.890;2023-09-19T04:10:13;22.00;;;13.37;;
19358;SDS011;9815;52.334;20.890;2023-09-19T04:12:51;22.90;;;12.50;;
19358;SDS011;9815;52.334;20.890;2023-09-19T04:15:21;20.27;;;12.57;;
19358;SDS011;9815;52.334;20.890;2023-09-19T04:17:52;17.93;;;12.43;;
19358;SDS011;9815;52.334;20.890;2023-09-19T04:20:21;20.67;;;12.80;;
19358;SDS011;9815;52.334;20.890;2023-09-19T04:22:50;16.90;;;12.07;;
19358;SDS011;9815;52.334;20.890;2023-09-19T04:25:19;18.77;;;12.33;;
19358;SDS011;9815;52.334;20.890;2023-09-19T04:27:47;20.20;;;12.13;;
19358;SDS011;9815;52.334;20.890;2023-09-19T04:30:17;18.97;;;12.33;;
19358;SDS011;9815;52.334;20.890;2023-09-19T04:32:47;18.63;;;12.53;;
19358;SDS011;9815;52.334;20.890;2023-09-19T04:35:18;16.30;;;11.90;;
19358;SDS011;9815;52.334;20.890;2023-09-19T04:37:46;20.23;;;12.37;;
19358;SDS011;9815;52.334;20.890;2023-09-19T04:40:15;14.83;;;11.57;;
19358;SDS011;9815;52.334;20.890;2023-09-19T04:42:44;20.67;;;13.00;;
19358;SDS011;9815;52.334;20.890;2023-09-19T04:45:14;21.50;;;12.40;;
19358;SDS011;9815;52.334;20.890;2023-09-19T04:47:44;18.83;;;12.13;;
19358;SDS011;9815;52.334;20.890;2023-09-19T04:50:13;18.10;;;12.17;;
19358;SDS011;9815;52.334;20.890;2023-09-19T04:52:41;21.57;;;12.77;;
19358;SDS011;9815;52.334;20.890;2023-09-19T04:55:11;20.17;;;12.50;;
19358;SDS011;9815;52.334;20.890;2023-09-19T04:57:44;23.77;;;11.80;;
19358;SDS011;9815;52.334;20.890;2023-09-19T05:00:13;20.47;;;12.80;;
19358;SDS011;9815;52.334;20.890;2023-09-19T05:02:45;21.90;;;12.73;;
19358;SDS011;9815;52.334;20.890;2023-09-19T05:05:13;17.80;;;11.83;;
19358;SDS011;9815;52.334;20.890;2023-09-19T05:07:43;23.07;;;12.53;;
19358;SDS011;9815;52.334;20.890;2023-09-19T05:10:13;20.40;;;12.20;;
19358;SDS011;9815;52.334;20.890;2023-09-19T05:12:42;17.83;;;12.03;;
19358;SDS011;9815;52.334;20.890;2023-09-19T05:15:13;19.50;;;12.00;;
19358;SDS011;9815;52.334;20.890;2023-09-19T05:17:48;18.63;;;12.03;;
19358;SDS011;9815;52.334;20.890;2023-09-19T05:20:22;21.43;;;11.93;;
19358;SDS011;9815;52.334;20.890;2023-09-19T05:23:00;17.87;;;11.17;;
19358;SDS011;9815;52.334;20.890;2023-09-19T05:25:30;22.47;;;11.57;;
19358;SDS011;9815;52.334;20.890;2023-09-19T05:27:59;21.83;;;11.17;;
19358;SDS011;9815;52.334;20.890;2023-09-19T05:30:30;22.03;;;11.23;;
19358;SDS011;9815;52.334;20.890;2023-09-19T05:33:00;18.67;;;11.37;;
19358;SDS011;9815;52.334;20.890;2023-09-19T05:35:31;23.10;;;11.90;;
19358;SDS011;9815;52.334;20.890;2023-09-19T05:37:59;19.87;;;11.03;;
19358;SDS011;9815;52.334;20.890;2023-09-19T05:40:28;20.03;;;10.87;;
19358;SDS011;9815;52.334;20.890;2023-09-19T05:42:56;19.10;;;10.97;;
19358;SDS011;9815;52.334;20.890;2023-09-19T05:45:25;18.70;;;11.90;;
19358;SDS011;9815;52.334;20.890;2023-09-19T05:47:54;22.87;;;11.27;;
19358;SDS011;9815;52.334;20.890;2023-09-19T05:50:29;19.47;;;12.07;;
19358;SDS011;9815;52.334;20.890;2023-09-19T05:52:58;16.47;;;10.93;;
19358;SDS011;9815;52.334;20.890;2023-09-19T05:55:27;19.07;;;12.33;;
19358;SDS011;9815;52.334;20.890;2023-09-19T05:57:56;16.93;;;11.60;;
19358;SDS011;9815;52.334;20.890;2023-09-19T06:00:24;25.77;;;11.77;;
19358;SDS011;9815;52.334;20.890;2023-09-19T06:02:54;20.27;;;11.50;;
19358;SDS011;9815;52.334;20.890;2023-09-19T06:05:24;20.00;;;11.40;;
19358;SDS011;9815;52.334;20.890;2023-09-19T06:07:55;18.30;;;11.13;;
19358;SDS011;9815;52.334;20.890;2023-09-19T06:10:27;25.17;;;11.77;;
19358;SDS011;9815;52.334;20.890;2023-09-19T06:12:56;20.27;;;11.50;;
19358;SDS011;9815;52.334;20.890;2023-09-19T06:15:25;16.10;;;12.03;;
19358;SDS011;9815;52.334;20.890;2023-09-19T06:17:54;21.70;;;11.60;;
19358;SDS011;9815;52.334;20.890;2023-09-19T06:20:24;18.83;;;11.97;;
19358;SDS011;9815;52.334;20.890;2023-09-19T06:22:53;16.37;;;11.37;;
19358;SDS011;9815;52.334;20.890;2023-09-19T06:25:24;18.10;;;11.23;;
19358;SDS011;9815;52.334;20.890;2023-09-19T06:27:52;17.50;;;12.13;;
19358;SDS011;9815;52.334;20.890;2023-09-19T06:30:22;18.30;;;11.90;;
19358;SDS011;9815;52.334;20.890;2023-09-19T06:32:55;15.00;;;11.13;;
19358;SDS011;9815;52.334;20.890;2023-09-19T06:35:24;19.83;;;11.50;;
19358;SDS011;9815;52.334;20.890;2023-09-19T06:37:53;17.70;;;11.23;;
19358;SDS011;9815;52.334;20.890;2023-09-19T06:40:26;17.73;;;10.83;;
19358;SDS011;9815;52.334;20.890;2023-09-19T06:42:55;19.40;;;11.47;;
19358;SDS011;9815;52.334;20.890;2023-09-19T06:45:23;16.67;;;11.03;;
19358;SDS011;9815;52.334;20.890;2023-09-19T06:47:53;19.03;;;10.87;;
19358;SDS011;9815;52.334;20.890;2023-09-19T06:50:25;16.73;;;11.10;;
19358;SDS011;9815;52.334;20.890;2023-09-19T06:52:54;17.83;;;11.07;;
19358;SDS011;9815;52.334;20.890;2023-09-19T06:55:26;18.73;;;11.73;;
19358;SDS011;9815;52.334;20.890;2023-09-19T06:57:59;15.73;;;11.20;;
19358;SDS011;9815;52.334;20.890;2023-09-19T07:00:28;20.47;;;10.77;;
19358;SDS011;9815;52.334;20.890;2023-09-19T07:02:58;20.50;;;11.43;;
19358;SDS011;9815;52.334;20.890;2023-09-19T07:05:31;18.63;;;11.47;;
19358;SDS011;9815;52.334;20.890;2023-09-19T07:07:59;20.43;;;12.37;;
19358;SDS011;9815;52.334;20.890;2023-09-19T07:10:29;18.10;;;12.00;;
19358;SDS011;9815;52.334;20.890;2023-09-19T07:12:57;21.77;;;11.43;;
19358;SDS011;9815;52.334;20.890;2023-09-19T07:15:26;18.97;;;12.77;;
19358;SDS011;9815;52.334;20.890;2023-09-19T07:17:57;21.00;;;12.27;;
19358;SDS011;9815;52.334;20.890;2023-09-19T07:20:27;19.90;;;12.07;;
19358;SDS011;9815;52.334;20.890;2023-09-19T07:22:58;17.27;;;11.87;;
19358;SDS011;9815;52.334;20.890;2023-09-19T07:25:29;19.00;;;12.90;;
19358;SDS011;9815;52.334;20.890;2023-09-19T07:27:58;23.20;;;13.33;;
19358;SDS011;9815;52.334;20.890;2023-09-19T07:30:27;23.97;;;13.00;;
19358;SDS011;9815;52.334;20.890;2023-09-19T07:32:56;22.40;;;13.20;;
19358;SDS011;9815;52.334;20.890;2023-09-19T07:35:25;19.67;;;12.50;;
19358;SDS011;9815;52.334;20.890;2023-09-19T07:37:53;19.67;;;12.63;;
19358;SDS011;9815;52.334;20.890;2023-09-19T07:40:23;19.77;;;12.70;;
19358;SDS011;9815;52.334;20.890;2023-09-19T07:42:55;18.40;;;13.20;;
19358;SDS011;9815;52.334;20.890;2023-09-19T07:45:23;21.53;;;13.03;;
19358;SDS011;9815;52.334;20.890;2023-09-19T07:47:52;22.23;;;14.37;;
19358;SDS011;9815;52.334;20.890;2023-09-19T07:50:20;22.37;;;13.87;;
19358;SDS011;9815;52.334;20.890;2023-09-19T07:52:49;22.40;;;13.77;;
19358;SDS011;9815;52.334;20.890;2023-09-19T07:55:19;21.20;;;13.53;;
19358;SDS011;9815;52.334;20.890;2023-09-19T07:57:50;21.87;;;13.23;;
19358;SDS011;9815;52.334;20.890;2023-09-19T08:00:20;23.90;;;13.70;;
19358;SDS011;9815;52.334;20.890;2023-09-19T08:02:49;21.07;;;13.67;;
19358;SDS011;9815;52.334;20.890;2023-09-19T08:05:26;24.67;;;14.60;;
19358;SDS011;9815;52.334;20.890;2023-09-19T08:07:55;22.37;;;13.90;;
19358;SDS011;9815;52.334;20.890;2023-09-19T08:10:25;21.60;;;13.80;;
19358;SDS011;9815;52.334;20.890;2023-09-19T08:12:54;19.27;;;13.60;;
19358;SDS011;9815;52.334;20.890;2023-09-19T08:15:27;24.50;;;13.07;;
19358;SDS011;9815;52.334;20.890;2023-09-19T08:17:55;18.43;;;12.60;;
19358;SDS011;9815;52.334;20.890;2023-09-19T08:20:24;22.07;;;11.73;;
19358;SDS011;9815;52.334;20.890;2023-09-19T08:22:52;19.13;;;12.23;;
19358;SDS011;9815;52.334;20.890;2023-09-19T08:25:21;20.17;;;12.30;;
19358;SDS011;9815;52.334;20.890;2023-09-19T08:27:54;18.30;;;12.23;;
19358;SDS011;9815;52.334;20.890;2023-09-19T08:30:26;20.40;;;11.67;;
19358;SDS011;9815;52.334;20.890;2023-09-19T08:33:40;18.90;;;11.37;;
19358;SDS011;9815;52.334;20.890;2023-09-19T08:36:09;22.10;;;12.63;;
19358;SDS011;9815;52.334;20.890;2023-09-19T08:38:41;20.17;;;12.53;;
19358;SDS011;9815;52.334;20.890;2023-09-19T08:41:09;20.23;;;12.93;;
19358;SDS011;9815;52.334;20.890;2023-09-19T08:43:37;23.70;;;12.90;;
19358;SDS011;9815;52.334;20.890;2023-09-19T08:46:09;21.60;;;13.00;;
19358;SDS011;9815;52.334;20.890;2023-09-19T08:48:45;20.07;;;13.20;;
19358;SDS011;9815;52.334;20.890;2023-09-19T08:51:18;32.63;;;15.87;;
19358;SDS011;9815;52.334;20.890;2023-09-19T08:53:56;32.37;;;16.93;;
19358;SDS011;9815;52.334;20.890;2023-09-19T08:56:31;29.00;;;16.23;;
19358;SDS011;9815;52.334;20.890;2023-09-19T08:59:02;30.43;;;16.17;;
19358;SDS011;9815;52.334;20.890;2023-09-19T09:01:34;27.70;;;17.50;;
19358;SDS011;9815;52.334;20.890;2023-09-19T09:04:05;35.97;;;17.90;;
19358;SDS011;9815;52.334;20.890;2023-09-19T09:06:40;24.67;;;17.83;;
19358;SDS011;9815;52.334;20.890;2023-09-19T09:09:10;28.20;;;17.40;;
19358;SDS011;9815;52.334;20.890;2023-09-19T09:11:38;26.33;;;17.50;;
19358;SDS011;9815;52.334;20.890;2023-09-19T09:14:08;24.93;;;18.50;;
19358;SDS011;9815;52.334;20.890;2023-09-19T09:16:38;26.97;;;18.60;;
19358;SDS011;9815;52.334;20.890;2023-09-19T09:19:08;28.10;;;18.57;;
19358;SDS011;9815;52.334;20.890;2023-09-19T09:21:37;29.90;;;18.97;;
19358;SDS011;9815;52.334;20.890;2023-09-19T09:26:55;30.60;;;20.00;;
19358;SDS011;9815;52.334;20.890;2023-09-19T09:29:43;26.67;;;18.17;;
19358;SDS011;9815;52.334;20.890;2023-09-19T09:32:16;27.00;;;19.07;;
19358;SDS011;9815;52.334;20.890;2023-09-19T09:34:50;28.13;;;17.63;;
19358;SDS011;9815;52.334;20.890;2023-09-19T09:37:25;27.17;;;17.67;;
19358;SDS011;9815;52.334;20.890;2023-09-19T09:39:57;26.33;;;17.53;;
19358;SDS011;9815;52.334;20.890;2023-09-19T09:42:45;27.73;;;17.03;;
19358;SDS011;9815;52.334;20.890;2023-09-19T09:45:16;26.13;;;17.13;;
19358;SDS011;9815;52.334;20.890;2023-09-19T09:47:55;26.03;;;17.63;;
19358;SDS011;9815;52.334;20.890;2023-09-19T09:50:28;28.17;;;18.13;;
19358;SDS011;9815;52.334;20.890;2023-09-19T09:53:19;22.53;;;16.57;;
19358;SDS011;9815;52.334;20.890;2023-09-19T09:55:57;28.47;;;17.47;;
19358;SDS011;9815;52.334;20.890;2023-09-19T09:58:27;28.70;;;17.57;;
19358;SDS011;9815;52.334;20.890;2023-09-19T10:00:58;23.90;;;17.20;;
19358;SDS011;9815;52.334;20.890;2023-09-19T10:03:31;23.93;;;16.60;;
19358;SDS011;9815;52.334;20.890;2023-09-19T10:06:10;26.40;;;17.07;;
19358;SDS011;9815;52.334;20.890;2023-09-19T10:08:57;22.97;;;16.03;;
19358;SDS011;9815;52.334;20.890;2023-09-19T10:11:31;23.60;;;16.30;;
19358;SDS011;9815;52.334;20.890;2023-09-19T10:14:06;21.77;;;14.97;;
19358;SDS011;9815;52.334;20.890;2023-09-19T10:16:36;21.97;;;15.37;;
19358;SDS011;9815;52.334;20.890;2023-09-19T10:19:09;19.73;;;13.83;;
19358;SDS011;9815;52.334;20.890;2023-09-19T10:21:42;20.67;;;14.87;;
19358;SDS011;9815;52.334;20.890;2023-09-19T10:24:12;24.77;;;14.87;;
19358;SDS011;9815;52.334;20.890;2023-09-19T10:26:44;23.00;;;13.60;;
19358;SDS011;9815;52.334;20.890;2023-09-19T10:29:13;20.40;;;13.20;;
19358;SDS011;9815;52.334;20.890;2023-09-19T10:31:43;21.20;;;13.73;;
19358;SDS011;9815;52.334;20.890;2023-09-19T10:34:14;17.50;;;11.97;;
19358;SDS011;9815;52.334;20.890;2023-09-19T10:36:46;19.60;;;12.30;;
19358;SDS011;9815;52.334;20.890;2023-09-19T10:39:15;19.97;;;12.80;;
19358;SDS011;9815;52.334;20.890;2023-09-19T10:41:47;19.27;;;11.77;;
19358;SDS011;9815;52.334;20.890;2023-09-19T10:44:25;15.77;;;10.80;;
19358;SDS011;9815;52.334;20.890;2023-09-19T10:46:55;14.93;;;10.57;;
19358;SDS011;9815;52.334;20.890;2023-09-19T10:49:24;13.20;;;10.50;;
19358;SDS011;9815;52.334;20.890;2023-09-19T10:51:55;16.77;;;10.07;;
19358;SDS011;9815;52.334;20.890;2023-09-19T10:54:28;14.43;;;9.70;;
19358;SDS011;9815;52.334;20.890;2023-09-19T10:57:00;16.43;;;9.93;;
19358;SDS011;9815;52.334;20.890;2023-09-19T10:59:31;17.13;;;9.77;;
19358;SDS011;9815;52.334;20.890;2023-09-19T11:02:15;15.13;;;10.50;;
19358;SDS011;9815;52.334;20.890;2023-09-19T11:04:45;14.00;;;9.60;;
19358;SDS011;9815;52.334;20.890;2023-09-19T11:07:16;13.80;;;9.67;;
19358;SDS011;9815;52.334;20.890;2023-09-19T11:09:45;16.93;;;10.50;;
19358;SDS011;9815;52.334;20.890;2023-09-19T11:18:51;16.13;;;11.20;;
19358;SDS011;9815;52.334;20.890;2023-09-19T11:24:30;18.17;;;10.00;;
19358;SDS011;9815;52.334;20.890;2023-09-19T11:27:09;14.37;;;10.00;;
19358;SDS011;9815;52.334;20.890;2023-09-19T11:29:40;14.00;;;9.67;;
19358;SDS011;9815;52.334;20.890;2023-09-19T11:32:09;13.13;;;10.00;;
19358;SDS011;9815;52.334;20.890;2023-09-19T11:34:39;17.50;;;9.73;;
19358;SDS011;9815;52.334;20.890;2023-09-19T11:40:36;15.77;;;9.80;;
19358;SDS011;9815;52.334;20.890;2023-09-19T11:46:04;18.00;;;9.63;;
19358;SDS011;9815;52.334;20.890;2023-09-19T11:48:35;14.23;;;10.20;;
19358;SDS011;9815;52.334;20.890;2023-09-19T11:51:11;14.20;;;9.53;;
19358;SDS011;9815;52.334;20.890;2023-09-19T11:53:49;16.13;;;10.00;;
19358;SDS011;9815;52.334;20.890;2023-09-19T11:56:21;16.37;;;10.90;;
19358;SDS011;9815;52.334;20.890;2023-09-19T11:58:51;17.13;;;10.60;;
19358;SDS011;9815;52.334;20.890;2023-09-19T12:01:23;14.30;;;10.00;;
19358;SDS011;9815;52.334;20.890;2023-09-19T12:03:56;15.23;;;10.20;;
19358;SDS011;9815;52.334;20.890;2023-09-19T12:06:26;18.53;;;10.40;;
19358;SDS011;9815;52.334;20.890;2023-09-19T12:08:57;16.23;;;9.90;;
19358;SDS011;9815;52.334;20.890;2023-09-19T12:11:29;14.30;;;10.13;;
19358;SDS011;9815;52.334;20.890;2023-09-19T12:14:01;18.17;;;10.27;;
19358;SDS011;9815;52.334;20.890;2023-09-19T12:16:31;20.73;;;11.30;;
19358;SDS011;9815;52.334;20.890;2023-09-19T12:21:54;15.73;;;10.20;;
19358;SDS011;9815;52.334;20.890;2023-09-19T12:24:26;15.37;;;10.00;;
19358;SDS011;9815;52.334;20.890;2023-09-19T12:27:01;19.57;;;10.33;;
19358;SDS011;9815;52.334;20.890;2023-09-19T12:29:41;21.77;;;11.00;;
19358;SDS011;9815;52.334;20.890;2023-09-19T12:32:11;18.97;;;11.47;;
19358;SDS011;9815;52.334;20.890;2023-09-19T12:34:45;17.47;;;11.17;;
19358;SDS011;9815;52.334;20.890;2023-09-19T12:37:20;14.50;;;10.97;;
19358;SDS011;9815;52.334;20.890;2023-09-19T12:39:50;15.83;;;11.40;;
19358;SDS011;9815;52.334;20.890;2023-09-19T12:42:23;16.17;;;10.83;;
19358;SDS011;9815;52.334;20.890;2023-09-19T12:44:55;14.87;;;10.60;;
19358;SDS011;9815;52.334;20.890;2023-09-19T12:47:24;15.37;;;10.27;;
19358;SDS011;9815;52.334;20.890;2023-09-19T12:50:05;22.13;;;10.73;;
19358;SDS011;9815;52.334;20.890;2023-09-19T12:52:35;16.70;;;10.60;;
19358;SDS011;9815;52.334;20.890;2023-09-19T12:55:04;18.23;;;11.10;;
19358;SDS011;9815;52.334;20.890;2023-09-19T12:57:36;19.63;;;10.47;;
19358;SDS011;9815;52.334;20.890;2023-09-19T13:00:06;14.50;;;9.93;;
19358;SDS011;9815;52.334;20.890;2023-09-19T13:02:37;16.87;;;10.03;;
19358;SDS011;9815;52.334;20.890;2023-09-19T13:08:20;22.07;;;11.97;;
19358;SDS011;9815;52.334;20.890;2023-09-19T13:11:08;18.13;;;10.23;;
19358;SDS011;9815;52.334;20.890;2023-09-19T13:13:41;20.17;;;10.90;;
19358;SDS011;9815;52.334;20.890;2023-09-19T13:16:16;14.43;;;10.67;;
19358;SDS011;9815;52.334;20.890;2023-09-19T13:18:49;15.73;;;10.30;;
19358;SDS011;9815;52.334;20.890;2023-09-19T13:21:27;15.50;;;11.10;;
19358;SDS011;9815;52.334;20.890;2023-09-19T13:24:18;19.83;;;11.27;;
19358;SDS011;9815;52.334;20.890;2023-09-19T13:26:48;15.37;;;10.43;;
19358;SDS011;9815;52.334;20.890;2023-09-19T13:29:17;17.20;;;10.90;;
19358;SDS011;9815;52.334;20.890;2023-09-19T13:31:46;16.87;;;10.47;;
19358;SDS011;9815;52.334;20.890;2023-09-19T13:34:15;17.17;;;10.90;;
19358;SDS011;9815;52.334;20.890;2023-09-19T13:36:44;16.17;;;10.83;;
19358;SDS011;9815;52.334;20.890;2023-09-19T13:39:14;18.23;;;10.70;;
19358;SDS011;9815;52.334;20.890;2023-09-19T13:41:44;16.23;;;10.53;;
19358;SDS011;9815;52.334;20.890;2023-09-19T13:44:13;14.20;;;10.43;;
19358;SDS011;9815;52.334;20.890;2023-09-19T13:46:45;16.63;;;10.90;;
19358;SDS011;9815;52.334;20.890;2023-09-19T13:49:14;14.07;;;9.37;;
19358;SDS011;9815;52.334;20.890;2023-09-19T13:51:48;15.40;;;10.13;;
19358;SDS011;9815;52.334;20.890;2023-09-19T13:54:16;15.50;;;10.23;;
19358;SDS011;9815;52.334;20.890;2023-09-19T13:56:45;17.57;;;10.27;;
19358;SDS011;9815;52.334;20.890;2023-09-19T13:59:13;16.27;;;10.03;;
19358;SDS011;9815;52.334;20.890;2023-09-19T14:01:42;15.40;;;9.80;;
19358;SDS011;9815;52.334;20.890;2023-09-19T14:04:11;14.77;;;9.47;;
19358;SDS011;9815;52.334;20.890;2023-09-19T14:06:41;14.70;;;9.73;;
19358;SDS011;9815;52.334;20.890;2023-09-19T14:09:12;15.63;;;10.43;;
19358;SDS011;9815;52.334;20.890;2023-09-19T14:11:40;15.20;;;10.17;;
19358;SDS011;9815;52.334;20.890;2023-09-19T14:14:08;17.47;;;9.93;;
19358;SDS011;9815;52.334;20.890;2023-09-19T14:16:37;15.27;;;9.93;;
19358;SDS011;9815;52.334;20.890;2023-09-19T14:19:08;16.57;;;9.20;;
19358;SDS011;9815;52.334;20.890;2023-09-19T14:21:38;18.00;;;10.27;;
19358;SDS011;9815;52.334;20.890;2023-09-19T14:24:06;11.53;;;9.13;;
19358;SDS011;9815;52.334;20.890;2023-09-19T14:26:36;15.70;;;10.20;;
19358;SDS011;9815;52.334;20.890;2023-09-19T14:29:04;13.67;;;10.30;;
19358;SDS011;9815;52.334;20.890;2023-09-19T14:31:34;15.13;;;10.63;;
19358;SDS011;9815;52.334;20.890;2023-09-19T14:34:05;19.40;;;10.43;;
19358;SDS011;9815;52.334;20.890;2023-09-19T14:36:35;15.53;;;10.03;;
19358;SDS011;9815;52.334;20.890;2023-09-19T14:39:10;17.23;;;9.93;;
19358;SDS011;9815;52.334;20.890;2023-09-19T14:41:39;12.67;;;9.90;;
19358;SDS011;9815;52.334;20.890;2023-09-19T14:44:07;13.53;;;10.33;;
19358;SDS011;9815;52.334;20.890;2023-09-19T14:46:37;16.33;;;10.37;;
19358;SDS011;9815;52.334;20.890;2023-09-19T14:49:06;16.77;;;10.00;;
19358;SDS011;9815;52.334;20.890;2023-09-19T14:51:37;12.93;;;9.50;;
19358;SDS011;9815;52.334;20.890;2023-09-19T14:54:08;15.17;;;9.83;;
19358;SDS011;9815;52.334;20.890;2023-09-19T14:56:37;14.13;;;10.03;;
19358;SDS011;9815;52.334;20.890;2023-09-19T14:59:06;14.07;;;9.33;;
19358;SDS011;9815;52.334;20.890;2023-09-19T15:01:37;15.03;;;9.00;;
19358;SDS011;9815;52.334;20.890;2023-09-19T15:04:07;12.23;;;8.37;;
19358;SDS011;9815;52.334;20.890;2023-09-19T15:06:36;12.07;;;8.13;;
19358;SDS011;9815;52.334;20.890;2023-09-19T15:09:04;11.90;;;7.77;;
19358;SDS011;9815;52.334;20.890;2023-09-19T15:11:36;11.20;;;7.97;;